To NAV CANADA Home Page Login to a new session Search on AWWS site Disclaimer Vers la page française équivalente Tips FAQ What's new on the site To the Forecasts and Observations / NOTAM section To "File a Flight Plan" website Publications and other links Update of the User's profile FIC Telephone Numbers My Weather Data Folder Route Weather Data Regional Weather Data Local Weather Data To the Forecasts and Observations / NOTAM section
Request Generated 10/05/2022 at 19:32:28 UTC . Weather information available at that time is displayed.

METAR/TAF

If you find any discrepancies between the coded METAR/TAF and the plain language METAR/TAF please use the coded METAR/TAF. LWIS bulletins are not decoded in plain language.

TORONTO/LESTER B. PEARSON INTL/ON    

METAR CYYZ 051900Z 13007KT 15SM FEW250 22/09 A3002 RMK CI1 CI TR SLP167 DENSITY LT 1400FT=
METAR
LOCATION
CYYZ - TORONTO/LESTER B. PEARSON INTL/ON
DATE - TIME
05 OCTOBER 2022 - 1900 UTC
WIND
130 TRUE @ 7  KNOTS
VISIBILITY
15 STAT.  MILES
RUNWAY VISUAL RANGE
WEATHER
CLOUDINESS
FEW CLOUDS (1/8 - 2/8) 25000  FT
TEMP / DEWPOINT
22 C / 9 C
ALTIMETER
30.02 IN HG
RECENT WEATHER
WIND SHEAR

METAR CYYZ 051800Z 14007KT 15SM FEW250 20/09 A3003 RMK CI1 CI TR SLP174 DENSITY LT 1200FT=
METAR
LOCATION
CYYZ - TORONTO/LESTER B. PEARSON INTL/ON
DATE - TIME
05 OCTOBER 2022 - 1800 UTC
WIND
140 TRUE @ 7  KNOTS
VISIBILITY
15 STAT.  MILES
RUNWAY VISUAL RANGE
WEATHER
CLOUDINESS
FEW CLOUDS (1/8 - 2/8) 25000  FT
TEMP / DEWPOINT
20 C / 9 C
ALTIMETER
30.03 IN HG
RECENT WEATHER
WIND SHEAR

METAR CYYZ 051700Z 31004KT 260V020 15SM FEW250 21/05 A3005 RMK CI1 CI TR SLP179 ENSITY ALT 1300FT=
METAR
LOCATION
CYYZ - TORONTO/LESTER B. PEARSON INTL/ON
DATE - TIME
05 OCTOBER 2022 - 1700 UTC
WIND
310 TRUE @ 4  KNOTS
VARIATION
260 <-> 20  DEG
VISIBILITY
15 STAT.  MILES
RUNWAY VISUAL RANGE
WEATHER
CLOUDINESS
FEW CLOUDS (1/8 - 2/8) 25000  FT
TEMP / DEWPOINT
21 C / 5 C
ALTIMETER
30.05 IN HG
RECENT WEATHER
WIND SHEAR

Your time UTC time
Weather data provided by Environment Canada and NAV CANADA